createdAt,value
2022-09-15T00:01:12.298Z,19.59
2022-09-15T00:03:45.975Z,19.63
2022-09-15T00:06:13.643Z,19.60
2022-09-15T00:08:40.924Z,19.58
2022-09-15T00:11:31.087Z,19.65
2022-09-15T00:14:04.959Z,19.66
2022-09-15T00:16:33.085Z,19.66
2022-09-15T00:19:01.000Z,19.68
2022-09-15T00:21:32.193Z,19.68
2022-09-15T00:24:02.432Z,19.69
2022-09-15T00:26:31.000Z,19.72
2022-09-15T00:29:00.590Z,19.74
2022-09-15T00:31:30.523Z,19.75
2022-09-15T00:34:02.859Z,19.69
2022-09-15T00:36:30.098Z,19.73
2022-09-15T00:38:58.899Z,19.76
2022-09-15T00:41:26.515Z,19.73
2022-09-15T00:44:02.442Z,19.79
2022-09-15T00:46:31.240Z,19.80
2022-09-15T00:49:13.210Z,19.80
2022-09-15T00:51:54.421Z,19.75
2022-09-15T00:54:39.078Z,19.79
2022-09-15T00:57:15.948Z,19.83
2022-09-15T00:59:44.543Z,19.85
2022-09-15T01:02:35.483Z,19.80
2022-09-15T01:05:09.195Z,19.83
2022-09-15T01:07:46.178Z,19.84
2022-09-15T01:10:36.214Z,19.78
2022-09-15T01:13:08.671Z,19.80
2022-09-15T01:16:26.262Z,19.77
2022-09-15T01:19:43.530Z,19.78
2022-09-15T01:22:51.355Z,19.76
2022-09-15T01:26:03.417Z,19.76
2022-09-15T01:29:06.891Z,19.74
2022-09-15T01:32:16.173Z,19.71
2022-09-15T01:35:17.247Z,19.73
2022-09-15T01:37:55.629Z,19.66
2022-09-15T01:40:31.556Z,19.42
2022-09-15T01:43:02.097Z,19.26
2022-09-15T01:45:35.871Z,19.09
2022-09-15T01:48:08.762Z,18.96
2022-09-15T01:50:47.134Z,18.78
2022-09-15T01:53:22.405Z,18.65
2022-09-15T01:56:09.674Z,18.54
2022-09-15T01:58:42.089Z,18.45
2022-09-15T02:01:17.169Z,18.41
2022-09-15T02:03:55.698Z,18.39
2022-09-15T02:06:39.841Z,18.37
2022-09-15T02:09:20.866Z,18.32
2022-09-15T02:12:09.092Z,18.31
2022-09-15T02:14:57.881Z,18.30
2022-09-15T02:17:31.281Z,18.27
2022-09-15T02:20:17.579Z,18.29
2022-09-15T02:22:53.916Z,18.30
2022-09-15T02:25:31.197Z,18.24
2022-09-15T02:28:05.878Z,18.24
2022-09-15T02:30:37.895Z,18.22
2022-09-15T02:33:11.946Z,18.22
2022-09-15T02:35:40.862Z,18.23
2022-09-15T02:38:10.957Z,18.25
2022-09-15T02:40:43.201Z,18.23
2022-09-15T02:43:17.361Z,18.19
2022-09-15T02:45:44.269Z,18.17
2022-09-15T02:48:11.769Z,18.17
2022-09-15T02:50:39.197Z,18.16
2022-09-15T02:53:06.432Z,18.14
2022-09-15T02:55:33.652Z,18.15
2022-09-15T02:58:00.675Z,18.18
2022-09-15T03:00:29.068Z,18.17
2022-09-15T03:02:56.279Z,18.15
2022-09-15T03:05:27.588Z,18.14
2022-09-15T03:07:55.189Z,18.16
2022-09-15T03:10:25.014Z,18.14
2022-09-15T03:12:54.557Z,18.15
2022-09-15T03:15:25.813Z,18.15
2022-09-15T03:17:54.247Z,18.17
2022-09-15T03:20:30.461Z,18.17
2022-09-15T03:22:57.502Z,18.21
2022-09-15T03:25:26.913Z,18.21
2022-09-15T03:27:53.808Z,18.24
2022-09-15T03:30:20.932Z,18.24
2022-09-15T03:32:48.737Z,18.25
2022-09-15T03:35:15.714Z,18.26
2022-09-15T03:37:43.140Z,18.24
2022-09-15T03:40:10.840Z,18.23
2022-09-15T03:42:37.803Z,18.22
2022-09-15T03:45:05.179Z,18.19
2022-09-15T03:47:33.329Z,18.20
2022-09-15T03:50:00.198Z,18.21
2022-09-15T03:52:31.963Z,18.21
2022-09-15T03:54:59.065Z,18.24
2022-09-15T03:57:26.248Z,18.28
2022-09-15T03:59:53.275Z,18.29
2022-09-15T04:02:20.136Z,18.31
2022-09-15T04:04:46.956Z,18.30
2022-09-15T04:07:14.026Z,18.29
2022-09-15T04:09:41.921Z,18.30
2022-09-15T04:12:09.879Z,18.30
2022-09-15T04:14:36.816Z,18.31
2022-09-15T04:17:03.797Z,18.32
2022-09-15T04:19:31.024Z,18.27
2022-09-15T04:21:57.990Z,18.28
2022-09-15T04:24:24.988Z,18.30
2022-09-15T04:26:51.938Z,18.32
2022-09-15T04:29:19.488Z,18.29
2022-09-15T04:31:47.121Z,18.27
2022-09-15T04:34:14.393Z,18.23
2022-09-15T04:36:41.380Z,18.21
2022-09-15T04:39:08.235Z,18.19
2022-09-15T04:41:35.145Z,18.15
2022-09-15T04:44:02.625Z,18.11
2022-09-15T04:46:29.775Z,18.10
2022-09-15T04:48:58.695Z,18.09
2022-09-15T04:51:27.212Z,18.09
2022-09-15T04:53:54.225Z,18.03
2022-09-15T04:56:24.524Z,18.04
2022-09-15T04:59:03.844Z,18.06
2022-09-15T05:01:35.085Z,18.03
2022-09-15T05:04:04.701Z,18.02
2022-09-15T05:06:33.294Z,18.04
2022-09-15T05:09:00.360Z,18.03
2022-09-15T05:11:28.534Z,18.07
2022-09-15T05:13:55.517Z,18.09
2022-09-15T05:16:26.623Z,18.11
2022-09-15T05:18:59.383Z,18.14
2022-09-15T05:21:27.561Z,18.17
2022-09-15T05:23:54.863Z,18.18
2022-09-15T05:26:27.715Z,18.24
2022-09-15T05:28:56.908Z,18.25
2022-09-15T05:31:33.854Z,18.30
2022-09-15T05:34:04.409Z,18.32
2022-09-15T05:36:32.957Z,18.32
2022-09-15T05:39:00.366Z,18.32
2022-09-15T05:41:29.118Z,18.33
2022-09-15T05:43:58.410Z,18.33
2022-09-15T05:46:27.323Z,18.30
2022-09-15T05:48:57.870Z,18.33
2022-09-15T05:51:25.506Z,18.39
2022-09-15T05:53:52.555Z,18.41
2022-09-15T05:56:20.405Z,18.41
2022-09-15T05:58:50.013Z,18.42
2022-09-15T06:01:27.498Z,18.38
2022-09-15T06:03:56.604Z,18.36
2022-09-15T06:06:26.037Z,18.32
2022-09-15T06:08:58.893Z,18.32
2022-09-15T06:11:32.272Z,18.34
2022-09-15T06:14:03.427Z,18.33
2022-09-15T06:16:36.092Z,18.34
2022-09-15T06:19:04.132Z,18.35
2022-09-15T06:21:33.440Z,18.32
2022-09-15T06:24:07.331Z,18.35
2022-09-15T06:26:35.012Z,18.30
2022-09-15T06:29:05.396Z,18.29
2022-09-15T06:31:34.544Z,18.27
2022-09-15T06:34:03.867Z,18.32
2022-09-15T06:36:32.287Z,18.33
2022-09-15T06:38:59.492Z,18.31
2022-09-15T06:41:38.191Z,18.33
2022-09-15T06:44:14.229Z,18.35
2022-09-15T06:46:41.284Z,18.35
2022-09-15T06:49:08.237Z,18.34
2022-09-15T06:51:36.190Z,18.36
2022-09-15T06:54:04.255Z,18.37
2022-09-15T06:56:35.822Z,18.40
2022-09-15T06:59:06.048Z,18.37
2022-09-15T07:01:37.815Z,18.37
2022-09-15T07:04:08.585Z,18.35
2022-09-15T07:06:38.519Z,18.33
2022-09-15T07:09:06.969Z,18.33
2022-09-15T07:11:34.317Z,18.33
2022-09-15T07:14:01.829Z,18.30
2022-09-15T07:16:28.901Z,18.29
2022-09-15T07:18:57.864Z,18.27
2022-09-15T07:21:25.194Z,18.26
2022-09-15T07:23:52.580Z,18.23
2022-09-15T07:26:27.159Z,18.22
2022-09-15T07:29:00.052Z,18.23
2022-09-15T07:31:31.533Z,18.19
2022-09-15T07:34:02.584Z,18.16
2022-09-15T07:36:30.936Z,18.17
2022-09-15T07:38:58.548Z,18.16
2022-09-15T07:41:29.134Z,18.16
2022-09-15T07:43:59.391Z,18.10
2022-09-15T07:46:31.312Z,18.09
2022-09-15T07:48:58.616Z,18.09
2022-09-15T07:51:26.640Z,18.09
2022-09-15T07:53:55.075Z,18.06
2022-09-15T07:56:24.491Z,18.11
2022-09-15T07:58:52.176Z,18.04
2022-09-15T08:01:20.659Z,18.03
2022-09-15T08:03:51.155Z,18.01
2022-09-15T08:06:21.932Z,18.00
2022-09-15T08:08:52.421Z,18.01
2022-09-15T08:11:22.275Z,18.02
2022-09-15T08:13:52.375Z,18.02
2022-09-15T08:16:24.904Z,18.06
2022-09-15T08:18:54.290Z,18.04
2022-09-15T08:21:22.873Z,18.01
2022-09-15T08:23:56.591Z,18.06
2022-09-15T08:26:25.977Z,18.08
2022-09-15T08:28:53.071Z,17.99
2022-09-15T08:31:20.016Z,17.96
2022-09-15T08:33:53.040Z,17.98
2022-09-15T08:36:20.025Z,17.97
2022-09-15T08:38:47.868Z,18.01
2022-09-15T08:41:24.313Z,18.02
2022-09-15T08:44:16.597Z,17.99
2022-09-15T08:47:05.466Z,17.93
2022-09-15T08:49:58.320Z,17.90
2022-09-15T08:52:44.370Z,17.89
2022-09-15T08:55:20.453Z,17.89
2022-09-15T08:57:48.535Z,17.90
2022-09-15T09:00:17.354Z,17.87
2022-09-15T09:03:19.532Z,17.87
2022-09-15T09:05:59.371Z,17.84
2022-09-15T09:08:48.399Z,17.79
2022-09-15T09:11:27.523Z,17.77
2022-09-15T09:14:17.554Z,17.73
2022-09-15T09:17:07.961Z,17.68
2022-09-15T09:20:15.561Z,17.71
2022-09-15T09:22:48.398Z,17.72
2022-09-15T09:25:27.637Z,17.71
2022-09-15T09:27:58.399Z,17.71
2022-09-15T09:30:32.644Z,17.71
2022-09-15T09:33:24.321Z,17.70
2022-09-15T09:35:53.378Z,17.73
2022-09-15T09:38:31.495Z,17.70
2022-09-15T09:41:02.294Z,17.73
2022-09-15T09:43:32.828Z,17.67
2022-09-15T09:45:59.944Z,17.63
2022-09-15T09:48:29.854Z,17.65
2022-09-15T09:50:57.180Z,17.64
2022-09-15T09:53:28.887Z,17.60
2022-09-15T09:56:26.966Z,17.57
2022-09-15T09:58:55.348Z,17.56
2022-09-15T10:01:26.367Z,17.53
2022-09-15T10:04:16.908Z,17.47
2022-09-15T10:06:44.179Z,17.49
2022-09-15T10:09:18.303Z,17.51
2022-09-15T10:11:57.444Z,17.49
2022-09-15T10:14:36.496Z,17.41
2022-09-15T10:17:17.851Z,17.35
2022-09-15T10:20:07.115Z,17.29
2022-09-15T10:22:38.851Z,17.26
2022-09-15T10:25:49.396Z,17.18
2022-09-15T10:28:23.863Z,17.18
2022-09-15T10:31:11.092Z,17.15
2022-09-15T10:33:45.013Z,17.13
2022-09-15T10:36:28.562Z,17.11
2022-09-15T10:39:13.097Z,17.02
2022-09-15T10:42:18.029Z,16.97
2022-09-15T10:45:25.001Z,16.98
2022-09-15T10:48:40.077Z,16.91
2022-09-15T10:51:57.965Z,16.90
2022-09-15T10:55:06.662Z,16.94
2022-09-15T10:57:58.434Z,16.91
2022-09-15T11:00:35.021Z,16.82
2022-09-15T11:03:23.399Z,16.76
2022-09-15T11:06:28.684Z,16.64
2022-09-15T11:09:17.471Z,16.62
2022-09-15T11:11:57.728Z,16.63
2022-09-15T11:15:00.550Z,16.64
2022-09-15T11:17:54.484Z,16.61
2022-09-15T11:20:42.936Z,16.56
2022-09-15T11:23:21.537Z,16.57
2022-09-15T11:26:07.464Z,16.62
2022-09-15T11:29:03.525Z,16.64
2022-09-15T11:31:42.640Z,16.65
2022-09-15T11:34:33.233Z,16.62
2022-09-15T11:37:37.777Z,16.67
2022-09-15T11:40:17.610Z,16.74
2022-09-15T11:43:16.390Z,16.81
2022-09-15T11:45:50.650Z,16.85
2022-09-15T11:48:30.191Z,16.85
2022-09-15T11:51:02.214Z,16.93
2022-09-15T11:53:57.453Z,16.85
2022-09-15T11:56:52.231Z,16.85
2022-09-15T11:59:46.913Z,16.89
2022-09-15T12:02:30.548Z,16.86
2022-09-15T12:05:22.094Z,16.83
2022-09-15T12:07:58.803Z,16.85
2022-09-15T12:10:32.141Z,16.85
2022-09-15T12:13:01.208Z,16.87
2022-09-15T12:15:29.376Z,16.87
2022-09-15T12:18:37.358Z,16.87
2022-09-15T12:21:38.796Z,16.98
2022-09-15T12:24:56.112Z,17.04
2022-09-15T12:27:26.391Z,17.11
2022-09-15T12:29:59.924Z,17.15
2022-09-15T12:32:35.164Z,17.20
2022-09-15T12:35:17.789Z,17.24
2022-09-15T12:37:54.951Z,17.24
2022-09-15T12:40:33.553Z,17.26
2022-09-15T12:43:23.502Z,17.22
2022-09-15T12:46:01.314Z,17.24
2022-09-15T12:48:36.473Z,17.28
2022-09-15T12:51:07.644Z,17.26
2022-09-15T12:53:50.105Z,17.25
2022-09-15T12:56:27.316Z,17.28
2022-09-15T12:58:56.286Z,17.24
2022-09-15T13:01:23.310Z,17.25
2022-09-15T13:03:50.171Z,17.20
2022-09-15T13:06:23.971Z,17.23
2022-09-15T13:09:19.001Z,17.24
2022-09-15T13:11:53.855Z,17.28
2022-09-15T13:14:37.768Z,17.32
2022-09-15T13:17:17.256Z,17.35
2022-09-15T13:19:48.968Z,17.41
2022-09-15T13:22:36.824Z,17.40
2022-09-15T13:25:15.809Z,17.41
2022-09-15T13:27:53.843Z,17.43
2022-09-15T13:30:20.752Z,17.49
2022-09-15T13:33:18.804Z,17.50
2022-09-15T13:35:51.665Z,17.54
2022-09-15T13:38:58.684Z,17.58
2022-09-15T13:41:59.804Z,17.60
2022-09-15T13:44:51.551Z,17.61
2022-09-15T13:47:49.618Z,17.63
2022-09-15T13:50:41.853Z,17.63
2022-09-15T13:53:42.934Z,17.67
2022-09-15T13:56:27.835Z,17.73
2022-09-15T13:59:11.336Z,17.78
2022-09-15T14:01:42.938Z,17.82
2022-09-15T14:04:19.220Z,17.83
2022-09-15T14:06:58.525Z,17.92
2022-09-15T14:09:45.167Z,17.95
2022-09-15T14:12:15.121Z,18.00
2022-09-15T14:14:46.167Z,18.01
2022-09-15T14:17:25.827Z,18.06
2022-09-15T14:19:59.177Z,18.09
2022-09-15T14:22:29.133Z,18.11
2022-09-15T14:24:58.130Z,18.11
2022-09-15T14:27:29.670Z,18.13
2022-09-15T14:30:01.392Z,18.14
2022-09-15T14:32:33.749Z,18.15
2022-09-15T14:35:07.714Z,18.17
2022-09-15T14:37:35.545Z,18.19
2022-09-15T14:40:23.610Z,18.23
2022-09-15T14:42:50.831Z,18.19
2022-09-15T14:48:18.101Z,18.22
2022-09-15T14:51:18.394Z,18.27
2022-09-15T14:53:51.988Z,18.28
2022-09-15T14:56:28.452Z,18.25
2022-09-15T14:59:01.747Z,18.27
2022-09-15T15:01:40.255Z,18.34
2022-09-15T15:04:40.842Z,18.35
2022-09-15T15:07:22.749Z,18.30
2022-09-15T15:09:58.403Z,18.16
2022-09-15T15:12:48.610Z,18.19
2022-09-15T15:15:18.499Z,18.16
2022-09-15T15:17:51.119Z,18.17
2022-09-15T15:20:30.211Z,18.22
2022-09-15T15:23:23.366Z,18.23
2022-09-15T15:25:51.242Z,18.25
2022-09-15T15:28:47.629Z,18.27
2022-09-15T15:31:25.059Z,18.26
2022-09-15T15:34:05.511Z,18.25
2022-09-15T15:36:36.523Z,18.21
2022-09-15T15:39:07.883Z,18.22
2022-09-15T15:41:41.109Z,18.20
2022-09-15T15:44:27.662Z,18.23
2022-09-15T15:47:01.600Z,18.30
2022-09-15T15:49:32.515Z,18.31
2022-09-15T15:52:01.790Z,18.33
2022-09-15T15:54:28.802Z,18.32
2022-09-15T15:57:19.545Z,18.33
2022-09-15T15:59:46.932Z,18.34
2022-09-15T16:02:14.074Z,18.33
2022-09-15T16:04:41.143Z,18.36
2022-09-15T16:07:18.174Z,18.34
2022-09-15T16:09:47.332Z,18.35
2022-09-15T16:12:16.582Z,18.33
2022-09-15T16:14:43.367Z,18.35
2022-09-15T16:17:10.854Z,18.35
2022-09-15T16:19:37.761Z,18.36
2022-09-15T16:22:04.773Z,18.33
2022-09-15T16:24:31.717Z,18.35
2022-09-15T16:26:58.874Z,18.31
2022-09-15T16:29:29.869Z,18.34
2022-09-15T16:31:57.090Z,18.31
2022-09-15T16:34:23.858Z,18.30
2022-09-15T16:36:50.754Z,18.28
2022-09-15T16:39:17.734Z,18.29
2022-09-15T16:41:44.714Z,18.26
2022-09-15T16:44:19.604Z,18.24
2022-09-15T16:46:47.063Z,18.24
2022-09-15T16:49:13.960Z,18.25
2022-09-15T16:51:40.781Z,18.23
2022-09-15T16:54:18.450Z,18.23
2022-09-15T16:56:47.029Z,18.21
2022-09-15T16:59:14.492Z,18.22
2022-09-15T17:01:41.546Z,18.18
2022-09-15T17:04:15.994Z,18.17
2022-09-15T17:06:43.778Z,18.16
2022-09-15T17:09:10.737Z,18.14
2022-09-15T17:11:37.676Z,18.10
2022-09-15T17:14:04.726Z,18.07
2022-09-15T17:16:31.832Z,18.02
2022-09-15T17:18:58.905Z,18.02
2022-09-15T17:21:26.441Z,17.98
2022-09-15T17:23:53.691Z,17.93
2022-09-15T17:26:30.506Z,17.92
2022-09-15T17:29:06.530Z,17.89
2022-09-15T17:31:33.555Z,17.86
2022-09-15T17:34:02.388Z,17.82
2022-09-15T17:36:29.505Z,17.79
2022-09-15T17:38:57.492Z,17.77
2022-09-15T17:41:24.595Z,17.77
2022-09-15T17:43:53.165Z,17.75
2022-09-15T17:46:20.238Z,17.73
2022-09-15T17:48:47.228Z,17.73
2022-09-15T17:51:18.152Z,17.70
2022-09-15T17:53:47.259Z,17.69
2022-09-15T17:56:18.546Z,17.67
2022-09-15T17:58:45.995Z,17.63
2022-09-15T18:01:16.674Z,17.60
2022-09-15T18:03:45.443Z,17.59
2022-09-15T18:06:15.000Z,17.59
2022-09-15T18:08:42.136Z,17.54
2022-09-15T18:11:16.561Z,17.53
2022-09-15T18:13:50.059Z,17.54
2022-09-15T18:16:19.807Z,17.50
2022-09-15T18:18:47.360Z,17.49
2022-09-15T18:21:28.918Z,17.42
2022-09-15T18:23:58.625Z,17.43
2022-09-15T18:26:26.839Z,17.44
2022-09-15T18:28:55.047Z,17.42
2022-09-15T18:31:25.674Z,17.44
2022-09-15T18:33:52.727Z,17.43
2022-09-15T18:36:23.993Z,17.44
2022-09-15T18:38:51.133Z,17.45
2022-09-15T18:41:18.786Z,17.47
2022-09-15T18:43:50.372Z,17.46
2022-09-15T18:46:19.617Z,17.50
2022-09-15T18:48:46.720Z,17.53
2022-09-15T18:51:23.699Z,17.53
2022-09-15T18:53:54.219Z,17.52
2022-09-15T18:56:22.567Z,17.52
2022-09-15T18:58:54.763Z,17.53
2022-09-15T19:01:27.731Z,17.55
2022-09-15T19:03:54.899Z,17.56
2022-09-15T19:06:24.269Z,17.55
2022-09-15T19:08:51.389Z,17.56
2022-09-15T19:11:20.509Z,17.56
2022-09-15T19:13:48.700Z,17.56
2022-09-15T19:16:34.616Z,17.55
2022-09-15T19:19:07.328Z,17.55
2022-09-15T19:21:34.673Z,17.53
2022-09-15T19:24:01.834Z,17.51
2022-09-15T19:26:29.705Z,17.49
2022-09-15T19:28:57.726Z,17.49
2022-09-15T19:31:32.447Z,17.47
2022-09-15T19:33:59.750Z,17.42
2022-09-15T19:36:28.982Z,17.42
2022-09-15T19:38:58.132Z,17.43
2022-09-15T19:41:25.995Z,17.42
2022-09-15T19:43:53.749Z,17.40
2022-09-15T19:46:25.356Z,17.39
2022-09-15T19:48:54.315Z,17.35
2022-09-15T19:51:22.795Z,17.33
2022-09-15T19:53:52.964Z,17.31
2022-09-15T19:56:23.201Z,17.25
2022-09-15T19:58:50.181Z,17.12
2022-09-15T20:01:18.152Z,17.10
2022-09-15T20:03:45.777Z,17.09
2022-09-15T20:06:12.883Z,17.04
2022-09-15T20:08:41.836Z,17.00
2022-09-15T20:11:09.772Z,16.98
2022-09-15T20:13:41.413Z,16.96
2022-09-15T20:16:08.556Z,16.93
2022-09-15T20:18:39.394Z,16.89
2022-09-15T20:21:12.369Z,16.87
2022-09-15T20:23:49.672Z,16.86
2022-09-15T20:26:18.715Z,16.84
2022-09-15T20:28:46.485Z,16.81
2022-09-15T20:31:19.391Z,16.77
2022-09-15T20:33:48.874Z,16.72
2022-09-15T20:36:28.593Z,16.68
2022-09-15T20:38:56.869Z,16.69
2022-09-15T20:41:27.078Z,16.68
2022-09-15T20:43:54.631Z,16.68
2022-09-15T20:46:24.339Z,16.69
2022-09-15T20:48:52.615Z,16.65
2022-09-15T20:51:23.447Z,16.62
2022-09-15T20:53:55.293Z,16.63
2022-09-15T20:56:26.016Z,16.58
2022-09-15T20:58:55.373Z,16.55
2022-09-15T21:01:26.026Z,16.53
2022-09-15T21:03:55.391Z,16.50
2022-09-15T21:06:28.229Z,16.49
2022-09-15T21:08:56.840Z,16.45
2022-09-15T21:11:26.694Z,16.43
2022-09-15T21:13:55.658Z,16.41
2022-09-15T21:16:27.605Z,16.39
2022-09-15T21:18:58.234Z,16.37
2022-09-15T21:21:31.161Z,16.33
2022-09-15T21:24:05.319Z,16.33
2022-09-15T21:26:35.476Z,16.34
2022-09-15T21:29:02.824Z,16.35
2022-09-15T21:31:33.181Z,16.34
2022-09-15T21:34:00.313Z,16.33
2022-09-15T21:36:30.642Z,16.29
2022-09-15T21:38:59.526Z,16.28
2022-09-15T21:41:30.037Z,16.26
2022-09-15T21:43:59.169Z,16.25
2022-09-15T21:46:30.208Z,16.25
2022-09-15T21:48:59.789Z,16.22
2022-09-15T21:51:29.372Z,16.20
2022-09-15T21:53:59.439Z,16.16
2022-09-15T21:56:29.129Z,16.10
2022-09-15T21:58:56.076Z,16.09
2022-09-15T22:01:27.996Z,16.11
2022-09-15T22:03:59.630Z,16.06
2022-09-15T22:06:33.315Z,16.02
2022-09-15T22:09:05.364Z,15.99
2022-09-15T22:11:33.204Z,16.00
2022-09-15T22:14:03.055Z,15.94
2022-09-15T22:16:30.680Z,15.95
2022-09-15T22:18:57.819Z,15.87
2022-09-15T22:21:28.467Z,15.91
2022-09-15T22:23:57.791Z,15.81
2022-09-15T22:26:31.354Z,15.74
2022-09-15T22:29:02.603Z,15.82
2022-09-15T22:31:30.348Z,15.74
2022-09-15T22:33:57.555Z,15.77
2022-09-15T22:36:29.911Z,15.80
2022-09-15T22:39:04.227Z,15.78
2022-09-15T22:41:34.916Z,15.76
2022-09-15T22:44:02.696Z,15.76
2022-09-15T22:46:29.524Z,15.74
2022-09-15T22:48:56.515Z,15.69
2022-09-15T22:51:23.597Z,15.68
2022-09-15T22:53:54.662Z,15.72
2022-09-15T22:56:21.825Z,15.75
2022-09-15T22:58:50.121Z,15.67
2022-09-15T23:01:28.060Z,15.61
2022-09-15T23:03:59.021Z,15.66
2022-09-15T23:06:30.760Z,15.61
2022-09-15T23:09:04.618Z,15.64
2022-09-15T23:11:33.563Z,15.68
2022-09-15T23:14:01.966Z,15.71
2022-09-15T23:16:30.875Z,15.69
2022-09-15T23:18:58.553Z,15.72
2022-09-15T23:21:25.948Z,15.63
2022-09-15T23:23:54.975Z,15.63
2022-09-15T23:26:24.233Z,15.61
2022-09-15T23:28:51.856Z,15.59
2022-09-15T23:31:20.548Z,15.55
2022-09-15T23:33:48.060Z,15.58
2022-09-15T23:36:21.220Z,15.52
2022-09-15T23:38:49.617Z,15.59
2022-09-15T23:41:18.085Z,15.61
2022-09-15T23:43:45.559Z,15.63
2022-09-15T23:46:12.855Z,15.67
2022-09-15T23:48:39.869Z,15.71
2022-09-15T23:51:06.833Z,15.67
2022-09-15T23:53:34.328Z,15.73
2022-09-15T23:56:02.307Z,15.76
2022-09-15T23:58:29.074Z,15.80
